Time;durP1;ratioP1;P1;durP2;ratioP2;P2;SDS_P1;SDS_P2;PMS_P1;PMS_P2;Temp;Humidity;BMP_temperature;BMP_pressure;BME280_temperature;BME280_humidity;BME280_pressure;Samples;Min_cycle;Max_cycle;Signal;HPM_P1;HPM_P2
2023/05/11 00:00:37;;;;;;;;;;;;;;;;;;5032718;28;20044;-77
2023/05/11 00:03:02;;;;;;;;;;;;;;;;;;5018838;28;19913;-77
2023/05/11 00:05:28;;;;;;;;;;;;;;;;;;4995347;28;19921;-74
2023/05/11 00:07:53;;;;;;;;;;;;;;;;;;5012860;28;19913;-77
2023/05/11 00:10:19;;;;;;;;;;;;;;;;;;5011523;28;20005;-76
2023/05/11 00:12:44;;;;;;;;;;;;;;;;;;5011636;28;19917;-77
2023/05/11 00:15:10;;;;;;;;;;;;;;;;;;5029578;28;19913;-77
2023/05/11 00:17:35;;;;;;;;;;;;;;;;;;5032899;28;20429;-75
2023/05/11 00:20:00;;;;;;;;;;;;;;;;;;5031636;28;19913;-76
2023/05/11 00:22:26;;;;;;;;;;;;;;;;;;5031319;28;19913;-75
2023/05/11 00:24:51;;;;;;;;;;;;;;;;;;5031616;28;19967;-77
2023/05/11 00:27:16;;;;;;;;;;;;;;;;;;5031447;28;19963;-76
2023/05/11 00:29:42;;;;;;;;;;;;;;;;;;5032348;28;19936;-77
2023/05/11 00:32:07;;;;;;;;;;;;;;;;;;5031054;28;19917;-78
2023/05/11 00:34:33;;;;;;;;;;;;;;;;;;5032680;28;20443;-77
2023/05/11 00:36:58;;;;;;;;;;;;;;;;;;5015974;28;19913;-76
2023/05/11 00:39:24;;;;;;;;;;;;;;;;;;5017623;28;20051;-75
2023/05/11 00:41:49;;;;;;;;;;;;;;;;;;5037763;28;20304;-77
2023/05/11 00:44:14;;;;;;;;;;;;;;;;;;5045036;28;19984;-77
2023/05/11 00:46:40;;;;;;;;;;;;;;;;;;5046997;28;19943;-75
2023/05/11 00:49:06;;;;;;;;;;;;;;;;;;5048236;28;19913;-76
2023/05/11 00:51:31;;;;;;;;;;;;;;;;;;5046214;28;19917;-77
2023/05/11 00:53:57;;;;;;;;;;;;;;;;;;5045488;28;19917;-77
2023/05/11 00:56:22;;;;;;;;;;;;;;;;;;5048113;28;19963;-77
2023/05/11 00:58:47;;;;;;;;;;;;;;;;;;5046642;28;19916;-78
2023/05/11 01:01:16;;;;;;;;;;;;;;;;;;5038969;28;20403;-78
2023/05/11 01:03:41;;;;;;;;;;;;;;;;;;5032743;28;19967;-75
2023/05/11 01:06:07;;;;;;;;;;;;;;;;;;5033162;28;19917;-77
2023/05/11 01:08:33;;;;;;;;;;;;;;;;;;5035964;28;19962;-77
2023/05/11 01:10:58;;;;;;;;;;;;;;;;;;5018074;28;20006;-77
2023/05/11 01:13:24;;;;;;;;;;;;;;;;;;5034780;28;19913;-77
2023/05/11 01:15:49;;;;;;;;;;;;;;;;;;5034832;28;19913;-77
2023/05/11 01:18:16;;;;;;;;;;;;;;;;;;5034817;28;19999;-77
2023/05/11 01:20:42;;;;;;;;;;;;;;;;;;5021448;28;20004;-77
2023/05/11 01:23:07;;;;;;;;;;;;;;;;;;5015264;28;20336;-76
2023/05/11 01:25:36;;;;;;;;;;;;;;;;;;4998490;28;19983;-78
2023/05/11 01:28:01;;;;;;;;;;;;;;;;;;4998718;28;19956;-76
2023/05/11 01:30:27;;;;;;;;;;;;;;;;;;5014415;28;19941;-77
2023/05/11 01:32:52;;;;;;;;;;;;;;;;;;5014279;28;19909;-77
2023/05/11 01:35:17;;;;;;;;;;;;;;;;;;5015576;28;20377;-76
2023/05/11 01:37:43;;;;;;;;;;;;;;;;;;5033525;28;19913;-77
2023/05/11 01:40:08;;;;;;;;;;;;;;;;;;5017275;28;19916;-75
2023/05/11 01:42:34;;;;;;;;;;;;;;;;;;5035108;28;19929;-78
2023/05/11 01:44:59;;;;;;;;;;;;;;;;;;5034061;28;19920;-78
2023/05/11 01:47:25;;;;;;;;;;;;;;;;;;5035306;28;19920;-76
2023/05/11 01:49:50;;;;;;;;;;;;;;;;;;5035820;28;19936;-78
2023/05/11 01:52:15;;;;;;;;;;;;;;;;;;5034519;28;19917;-77
2023/05/11 01:54:41;;;;;;;;;;;;;;;;;;5033489;28;19996;-77
2023/05/11 01:57:06;;;;;;;;;;;;;;;;;;5018032;28;19913;-77
2023/05/11 01:59:32;;;;;;;;;;;;;;;;;;5017736;28;19913;-77
2023/05/11 02:01:57;;;;;;;;;;;;;;;;;;5034166;28;19913;-77
2023/05/11 02:04:23;;;;;;;;;;;;;;;;;;5034095;28;20466;-77
2023/05/11 02:06:48;;;;;;;;;;;;;;;;;;5017350;28;19921;-77
2023/05/11 02:09:13;;;;;;;;;;;;;;;;;;5032840;28;19913;-77
2023/05/11 02:11:39;;;;;;;;;;;;;;;;;;5033599;28;19996;-77
2023/05/11 02:14:04;;;;;;;;;;;;;;;;;;5032921;28;19913;-77
2023/05/11 02:16:30;;;;;;;;;;;;;;;;;;5032717;28;19913;-77
2023/05/11 02:18:56;;;;;;;;;;;;;;;;;;5034504;28;19999;-77
2023/05/11 02:21:22;;;;;;;;;;;;;;;;;;5033125;28;20051;-76
2023/05/11 02:23:47;;;;;;;;;;;;;;;;;;5032246;28;20277;-76
2023/05/11 02:26:13;;;;;;;;;;;;;;;;;;5016785;28;20012;-76
2023/05/11 02:28:38;;;;;;;;;;;;;;;;;;5033836;28;19913;-78
2023/05/11 02:31:04;;;;;;;;;;;;;;;;;;5034270;28;19921;-76
2023/05/11 02:33:31;;;;;;;;;;;;;;;;;;5033352;28;20419;-77
2023/05/11 02:35:56;;;;;;;;;;;;;;;;;;5032903;28;19956;-76
2023/05/11 02:38:24;;;;;;;;;;;;;;;;;;5016802;28;20444;-77
2023/05/11 02:40:50;;;;;;;;;;;;;;;;;;5033278;28;19952;-77
2023/05/11 02:43:16;;;;;;;;;;;;;;;;;;5011238;28;20406;-76
2023/05/11 02:45:48;;;;;;;;;;;;;;;;;;4997739;28;19921;-77
2023/05/11 02:48:14;;;;;;;;;;;;;;;;;;4996610;28;20274;-76
2023/05/11 02:50:39;;;;;;;;;;;;;;;;;;5012939;28;19910;-75
2023/05/11 02:53:06;;;;;;;;;;;;;;;;;;5012680;28;20296;-76
2023/05/11 02:55:32;;;;;;;;;;;;;;;;;;4997085;28;19913;-75
2023/05/11 02:57:57;;;;;;;;;;;;;;;;;;5014841;28;19920;-77
2023/05/11 03:00:23;;;;;;;;;;;;;;;;;;5013058;28;20245;-77
2023/05/11 03:02:48;;;;;;;;;;;;;;;;;;5013202;28;19918;-78
2023/05/11 03:05:18;;;;;;;;;;;;;;;;;;5012649;28;19917;-77
2023/05/11 03:07:44;;;;;;;;;;;;;;;;;;5012795;28;19941;-77
2023/05/11 03:10:10;;;;;;;;;;;;;;;;;;5013657;28;19913;-77
2023/05/11 03:12:38;;;;;;;;;;;;;;;;;;5012629;28;20012;-77
2023/05/11 03:15:04;;;;;;;;;;;;;;;;;;5019570;28;19914;-78
2023/05/11 03:17:31;;;;;;;;;;;;;;;;;;4996516;28;19920;-75
2023/05/11 03:19:57;;;;;;;;;;;;;;;;;;5012337;28;19914;-76
2023/05/11 03:22:23;;;;;;;;;;;;;;;;;;5012342;28;20300;-77
2023/05/11 03:24:49;;;;;;;;;;;;;;;;;;4996241;28;19925;-77
2023/05/11 03:27:14;;;;;;;;;;;;;;;;;;5013382;28;19918;-75
2023/05/11 03:29:42;;;;;;;;;;;;;;;;;;5012179;28;19913;-78
2023/05/11 03:32:08;;;;;;;;;;;;;;;;;;5024781;28;19913;-77
2023/05/11 03:34:35;;;;;;;;;;;;;;;;;;5031979;28;19913;-78
2023/05/11 03:37:01;;;;;;;;;;;;;;;;;;5033803;28;19920;-78
2023/05/11 03:39:26;;;;;;;;;;;;;;;;;;5032014;28;19913;-76
2023/05/11 03:41:52;;;;;;;;;;;;;;;;;;5032289;28;19913;-76
2023/05/11 03:44:21;;;;;;;;;;;;;;;;;;5033136;28;20129;-77
2023/05/11 03:46:47;;;;;;;;;;;;;;;;;;5049647;28;20011;-76
2023/05/11 03:49:12;;;;;;;;;;;;;;;;;;5048262;28;19913;-76
2023/05/11 03:51:38;;;;;;;;;;;;;;;;;;5030359;28;20342;-76
2023/05/11 03:54:03;;;;;;;;;;;;;;;;;;5029627;28;19917;-77
2023/05/11 03:56:28;;;;;;;;;;;;;;;;;;5029005;28;19924;-78
2023/05/11 03:58:54;;;;;;;;;;;;;;;;;;5046523;28;19917;-77
2023/05/11 04:01:20;;;;;;;;;;;;;;;;;;5038703;28;19913;-75
2023/05/11 04:03:45;;;;;;;;;;;;;;;;;;5032879;28;19966;-77
2023/05/11 04:06:11;;;;;;;;;;;;;;;;;;5031280;28;19917;-77
2023/05/11 04:08:36;;;;;;;;;;;;;;;;;;5032188;28;20008;-77
2023/05/11 04:11:02;;;;;;;;;;;;;;;;;;5032035;28;19956;-76
2023/05/11 04:13:27;;;;;;;;;;;;;;;;;;5032154;28;20414;-76
2023/05/11 04:15:53;;;;;;;;;;;;;;;;;;5016092;28;19935;-77
2023/05/11 04:18:18;;;;;;;;;;;;;;;;;;5032617;28;20008;-77
2023/05/11 04:20:44;;;;;;;;;;;;;;;;;;5031180;28;20368;-78
2023/05/11 04:23:09;;;;;;;;;;;;;;;;;;5032674;28;19913;-77
2023/05/11 04:25:35;;;;;;;;;;;;;;;;;;5031774;28;19917;-75
2023/05/11 04:28:00;;;;;;;;;;;;;;;;;;5031469;28;20342;-77
2023/05/11 04:30:25;;;;;;;;;;;;;;;;;;5031336;28;20438;-76
2023/05/11 04:32:51;;;;;;;;;;;;;;;;;;5030977;28;19924;-78
2023/05/11 04:35:17;;;;;;;;;;;;;;;;;;5031443;28;19964;-78
2023/05/11 04:37:42;;;;;;;;;;;;;;;;;;5030600;28;19913;-77
2023/05/11 04:40:08;;;;;;;;;;;;;;;;;;5035145;28;19959;-77
2023/05/11 04:42:38;;;;;;;;;;;;;;;;;;5019263;28;19917;-78
2023/05/11 04:45:06;;;;;;;;;;;;;;;;;;5018589;28;19940;-79
2023/05/11 04:47:32;;;;;;;;;;;;;;;;;;5034701;28;19913;-77
2023/05/11 04:49:57;;;;;;;;;;;;;;;;;;5018416;28;20377;-77
2023/05/11 04:52:22;;;;;;;;;;;;;;;;;;5033754;28;20008;-77
2023/05/11 04:54:48;;;;;;;;;;;;;;;;;;5034448;28;20300;-77
2023/05/11 04:57:14;;;;;;;;;;;;;;;;;;5034532;28;19920;-77
2023/05/11 04:59:40;;;;;;;;;;;;;;;;;;5034491;28;19913;-77
2023/05/11 05:02:05;;;;;;;;;;;;;;;;;;5035391;28;19913;-77
2023/05/11 05:04:31;;;;;;;;;;;;;;;;;;5034557;28;20388;-77
2023/05/11 05:06:56;;;;;;;;;;;;;;;;;;5034618;28;19917;-74
2023/05/11 05:09:22;;;;;;;;;;;;;;;;;;4999722;28;19920;-75
2023/05/11 05:11:47;;;;;;;;;;;;;;;;;;5016382;28;19921;-77
2023/05/11 05:14:12;;;;;;;;;;;;;;;;;;5014821;28;19917;-77
2023/05/11 05:16:38;;;;;;;;;;;;;;;;;;5014751;28;19918;-77
2023/05/11 05:19:04;;;;;;;;;;;;;;;;;;5015745;28;19914;-76
2023/05/11 05:21:31;;;;;;;;;;;;;;;;;;5014204;28;19913;-77
2023/05/11 05:23:56;;;;;;;;;;;;;;;;;;4998016;28;19920;-78
2023/05/11 05:26:22;;;;;;;;;;;;;;;;;;5027918;28;19921;-78
2023/05/11 05:28:48;;;;;;;;;;;;;;;;;;4982369;28;19917;-78
2023/05/11 05:31:14;;;;;;;;;;;;;;;;;;4982237;28;20435;-77
2023/05/11 05:33:39;;;;;;;;;;;;;;;;;;4998392;28;19914;-78
2023/05/11 05:36:05;;;;;;;;;;;;;;;;;;5015698;28;19999;-77
2023/05/11 05:38:30;;;;;;;;;;;;;;;;;;5014611;28;19964;-77
2023/05/11 05:40:56;;;;;;;;;;;;;;;;;;5014604;28;20293;-78
2023/05/11 05:43:22;;;;;;;;;;;;;;;;;;4982010;28;20369;-78
2023/05/11 05:45:48;;;;;;;;;;;;;;;;;;5014399;28;20044;-78
2023/05/11 05:48:13;;;;;;;;;;;;;;;;;;4998143;28;19921;-77
2023/05/11 05:50:39;;;;;;;;;;;;;;;;;;4997966;28;19913;-77
2023/05/11 05:53:05;;;;;;;;;;;;;;;;;;4998522;28;20000;-78
2023/05/11 05:55:30;;;;;;;;;;;;;;;;;;5014073;28;19921;-77
2023/05/11 05:57:57;;;;;;;;;;;;;;;;;;4981731;28;19953;-77
2023/05/11 06:00:22;;;;;;;;;;;;;;;;;;5013516;28;19949;-77
2023/05/11 06:02:56;;;;;;;;;;;;;;;;;;5014196;28;19913;-76
2023/05/11 06:05:25;;;;;;;;;;;;;;;;;;5013515;28;19924;-78
2023/05/11 06:07:50;;;;;;;;;;;;;;;;;;5014853;28;19913;-78
2023/05/11 06:10:16;;;;;;;;;;;;;;;;;;5013475;28;19945;-78
2023/05/11 06:12:43;;;;;;;;;;;;;;;;;;5013576;28;20392;-77
2023/05/11 06:15:08;;;;;;;;;;;;;;;;;;4997643;28;19957;-77
2023/05/11 06:17:36;;;;;;;;;;;;;;;;;;5011532;28;19980;-77
2023/05/11 06:20:02;;;;;;;;;;;;;;;;;;5013587;28;20345;-79
2023/05/11 06:22:29;;;;;;;;;;;;;;;;;;4998129;28;19936;-76
2023/05/11 06:24:55;;;;;;;;;;;;;;;;;;4998149;28;20372;-77
2023/05/11 06:27:20;;;;;;;;;;;;;;;;;;5013469;28;19917;-77
2023/05/11 06:29:46;;;;;;;;;;;;;;;;;;5015537;28;19967;-75
2023/05/11 06:32:12;;;;;;;;;;;;;;;;;;5019976;28;20007;-78
2023/05/11 06:34:38;;;;;;;;;;;;;;;;;;4999355;28;19940;-78
2023/05/11 06:37:03;;;;;;;;;;;;;;;;;;5016184;28;19997;-79
2023/05/11 06:39:29;;;;;;;;;;;;;;;;;;5020901;28;20447;-78
2023/05/11 06:41:54;;;;;;;;;;;;;;;;;;5004287;28;19913;-78
2023/05/11 06:44:20;;;;;;;;;;;;;;;;;;5023508;28;19918;-76
2023/05/11 06:46:45;;;;;;;;;;;;;;;;;;5022465;28;19917;-77
2023/05/11 06:49:11;;;;;;;;;;;;;;;;;;5024714;28;19945;-79
2023/05/11 06:51:36;;;;;;;;;;;;;;;;;;5040074;28;20312;-77
2023/05/11 06:54:02;;;;;;;;;;;;;;;;;;5023919;28;19925;-78
2023/05/11 06:56:28;;;;;;;;;;;;;;;;;;5021118;28;19913;-80
2023/05/11 06:58:53;;;;;;;;;;;;;;;;;;5024483;28;19920;-79
2023/05/11 07:01:19;;;;;;;;;;;;;;;;;;5024337;28;19957;-77
2023/05/11 07:03:46;;;;;;;;;;;;;;;;;;5026244;28;19981;-78
2023/05/11 07:06:12;;;;;;;;;;;;;;;;;;5033072;28;19953;-78
2023/05/11 07:08:37;;;;;;;;;;;;;;;;;;5043411;28;19920;-77
2023/05/11 07:11:03;;;;;;;;;;;;;;;;;;5037279;28;19920;-78
2023/05/11 07:13:28;;;;;;;;;;;;;;;;;;5040311;28;20300;-78
2023/05/11 07:15:53;;;;;;;;;;;;;;;;;;5034099;28;19909;-78
2023/05/11 07:18:19;;;;;;;;;;;;;;;;;;5016685;28;20034;-78
2023/05/11 07:20:48;;;;;;;;;;;;;;;;;;5015935;28;20394;-78
2023/05/11 07:23:14;;;;;;;;;;;;;;;;;;5031470;28;20356;-77
2023/05/11 07:25:39;;;;;;;;;;;;;;;;;;5032700;28;19923;-77
2023/05/11 07:28:04;;;;;;;;;;;;;;;;;;5032229;28;19913;-78
2023/05/11 07:30:30;;;;;;;;;;;;;;;;;;5032007;28;20241;-78
2023/05/11 07:32:56;;;;;;;;;;;;;;;;;;5031743;28;19972;-78
2023/05/11 07:35:21;;;;;;;;;;;;;;;;;;5032089;28;20335;-77
2023/05/11 07:37:53;;;;;;;;;;;;;;;;;;5033023;28;19971;-78
2023/05/11 07:40:18;;;;;;;;;;;;;;;;;;5013050;28;20000;-77
2023/05/11 07:42:43;;;;;;;;;;;;;;;;;;5012279;28;20011;-78
2023/05/11 07:45:09;;;;;;;;;;;;;;;;;;5012940;28;20307;-78
2023/05/11 07:47:34;;;;;;;;;;;;;;;;;;5013291;28;19960;-77
2023/05/11 07:50:00;;;;;;;;;;;;;;;;;;5012106;28;19933;-78
2023/05/11 07:52:25;;;;;;;;;;;;;;;;;;5013078;28;19953;-76
2023/05/11 07:54:51;;;;;;;;;;;;;;;;;;5012029;28;20339;-78
2023/05/11 07:57:16;;;;;;;;;;;;;;;;;;5013737;28;20394;-76
2023/05/11 07:59:42;;;;;;;;;;;;;;;;;;5032799;28;19913;-78
2023/05/11 08:02:08;;;;;;;;;;;;;;;;;;5031630;28;20358;-77
2023/05/11 08:04:33;;;;;;;;;;;;;;;;;;5031444;28;19913;-78
2023/05/11 08:06:59;;;;;;;;;;;;;;;;;;5014870;28;19928;-76
2023/05/11 08:09:24;;;;;;;;;;;;;;;;;;5031951;28;20375;-76
2023/05/11 08:11:50;;;;;;;;;;;;;;;;;;5031129;28;19939;-77
2023/05/11 08:14:17;;;;;;;;;;;;;;;;;;5030694;28;20613;-78
2023/05/11 08:16:43;;;;;;;;;;;;;;;;;;5032616;28;19914;-78
2023/05/11 08:19:08;;;;;;;;;;;;;;;;;;5031514;28;19924;-78
2023/05/11 08:21:34;;;;;;;;;;;;;;;;;;5032566;28;19920;-76
2023/05/11 08:24:00;;;;;;;;;;;;;;;;;;5032768;28;19919;-78
2023/05/11 08:26:25;;;;;;;;;;;;;;;;;;5015032;28;20330;-77
2023/05/11 08:28:53;;;;;;;;;;;;;;;;;;5030399;28;19913;-78
2023/05/11 08:31:19;;;;;;;;;;;;;;;;;;5031105;28;19917;-77
2023/05/11 08:33:44;;;;;;;;;;;;;;;;;;5031619;28;20388;-77
2023/05/11 08:36:12;;;;;;;;;;;;;;;;;;5031519;28;20016;-77
2023/05/11 08:38:37;;;;;;;;;;;;;;;;;;5033199;28;20392;-77
2023/05/11 08:41:03;;;;;;;;;;;;;;;;;;5015205;28;19929;-78
2023/05/11 08:43:29;;;;;;;;;;;;;;;;;;5014804;28;20438;-78
2023/05/11 08:45:54;;;;;;;;;;;;;;;;;;5014115;28;19917;-78
2023/05/11 08:48:21;;;;;;;;;;;;;;;;;;5032297;28;19956;-78
2023/05/11 08:50:46;;;;;;;;;;;;;;;;;;5030879;28;19924;-78
2023/05/11 08:53:12;;;;;;;;;;;;;;;;;;5014451;28;19920;-78
2023/05/11 08:55:37;;;;;;;;;;;;;;;;;;5030698;28;19913;-77
2023/05/11 08:58:03;;;;;;;;;;;;;;;;;;5032921;28;20248;-79
2023/05/11 09:00:29;;;;;;;;;;;;;;;;;;5033326;28;20322;-78
2023/05/11 09:02:54;;;;;;;;;;;;;;;;;;5029806;28;19913;-78
2023/05/11 09:05:20;;;;;;;;;;;;;;;;;;5030577;28;19917;-76
2023/05/11 09:07:46;;;;;;;;;;;;;;;;;;5030775;28;19996;-77
2023/05/11 09:10:11;;;;;;;;;;;;;;;;;;5030537;28;20295;-77
2023/05/11 09:12:37;;;;;;;;;;;;;;;;;;5032111;28;19913;-78
2023/05/11 09:15:03;;;;;;;;;;;;;;;;;;5014366;28;19928;-77
2023/05/11 09:17:28;;;;;;;;;;;;;;;;;;5032115;28;19917;-77
2023/05/11 09:19:54;;;;;;;;;;;;;;;;;;5031777;28;19952;-77
2023/05/11 09:22:19;;;;;;;;;;;;;;;;;;5030420;28;19909;-78
2023/05/11 09:24:45;;;;;;;;;;;;;;;;;;5034186;28;19913;-77
2023/05/11 09:27:13;;;;;;;;;;;;;;;;;;5018826;28;19916;-78
2023/05/11 09:29:38;;;;;;;;;;;;;;;;;;5035695;28;19917;-78
2023/05/11 09:32:04;;;;;;;;;;;;;;;;;;5035130;28;19929;-77
2023/05/11 09:34:29;;;;;;;;;;;;;;;;;;5035369;28;20295;-77
2023/05/11 09:36:55;;;;;;;;;;;;;;;;;;5036181;28;19921;-77
2023/05/11 09:39:21;;;;;;;;;;;;;;;;;;5034280;28;20051;-79
2023/05/11 09:41:46;;;;;;;;;;;;;;;;;;5050857;28;19920;-79
2023/05/11 09:44:12;;;;;;;;;;;;;;;;;;5035559;28;19919;-78
2023/05/11 09:46:37;;;;;;;;;;;;;;;;;;5051079;28;19940;-78
2023/05/11 09:49:03;;;;;;;;;;;;;;;;;;5035626;28;19909;-76
2023/05/11 09:51:29;;;;;;;;;;;;;;;;;;5035732;28;19917;-76
2023/05/11 09:53:55;;;;;;;;;;;;;;;;;;5050974;28;20628;-78
2023/05/11 09:56:20;;;;;;;;;;;;;;;;;;5035217;28;19917;-78
2023/05/11 09:58:46;;;;;;;;;;;;;;;;;;5042416;28;19920;-76
2023/05/11 10:01:11;;;;;;;;;;;;;;;;;;5027146;28;19948;-76
2023/05/11 10:03:37;;;;;;;;;;;;;;;;;;5053380;28;19902;-77
2023/05/11 10:06:03;;;;;;;;;;;;;;;;;;5064766;28;19924;-77
2023/05/11 10:08:29;;;;;;;;;;;;;;;;;;5041464;28;20376;-78
2023/05/11 10:10:54;;;;;;;;;;;;;;;;;;5039163;28;19963;-77
2023/05/11 10:13:20;;;;;;;;;;;;;;;;;;5042231;28;19913;-76
2023/05/11 10:15:45;;;;;;;;;;;;;;;;;;5041912;28;19975;-78
2023/05/11 10:18:11;;;;;;;;;;;;;;;;;;5076810;23;20679;-81
2023/05/11 10:20:36;;;;;;;;;;;;;;;;;;5037368;28;19917;-79
2023/05/11 10:23:02;;;;;;;;;;;;;;;;;;5033545;28;19917;-78
2023/05/11 10:25:27;;;;;;;;;;;;;;;;;;5017855;28;19921;-78
2023/05/11 10:27:53;;;;;;;;;;;;;;;;;;5032982;28;19918;-78
2023/05/11 10:30:18;;;;;;;;;;;;;;;;;;5013791;28;19913;-79
2023/05/11 10:32:44;;;;;;;;;;;;;;;;;;5015471;28;19913;-78
2023/05/11 10:35:10;;;;;;;;;;;;;;;;;;5013430;28;20248;-77
2023/05/11 10:37:35;;;;;;;;;;;;;;;;;;5012737;28;19932;-78
2023/05/11 10:40:01;;;;;;;;;;;;;;;;;;5014330;28;19910;-77
2023/05/11 10:42:26;;;;;;;;;;;;;;;;;;5014233;28;20351;-77
2023/05/11 10:44:51;;;;;;;;;;;;;;;;;;5012981;28;19925;-79
2023/05/11 10:47:17;;;;;;;;;;;;;;;;;;5013214;28;20017;-77
2023/05/11 10:49:42;;;;;;;;;;;;;;;;;;5013357;28;19914;-77
2023/05/11 10:52:08;;;;;;;;;;;;;;;;;;5013225;28;19913;-78
2023/05/11 10:54:33;;;;;;;;;;;;;;;;;;5014428;28;20387;-78
2023/05/11 10:56:59;;;;;;;;;;;;;;;;;;5012780;28;19929;-80
2023/05/11 10:59:24;;;;;;;;;;;;;;;;;;5030637;28;19924;-78
2023/05/11 11:01:51;;;;;;;;;;;;;;;;;;5033518;28;19913;-77
2023/05/11 11:04:17;;;;;;;;;;;;;;;;;;5032416;28;19959;-79
2023/05/11 11:06:43;;;;;;;;;;;;;;;;;;5049079;28;19967;-79
2023/05/11 11:09:10;;;;;;;;;;;;;;;;;;5034011;28;20380;-78
2023/05/11 11:11:35;;;;;;;;;;;;;;;;;;5034186;28;20120;-78
2023/05/11 11:14:02;;;;;;;;;;;;;;;;;;5033799;28;19957;-79
2023/05/11 11:16:27;;;;;;;;;;;;;;;;;;5032045;28;19945;-77
2023/05/11 11:18:53;;;;;;;;;;;;;;;;;;5033659;28;19973;-77
2023/05/11 11:21:19;;;;;;;;;;;;;;;;;;5033807;28;19920;-79
2023/05/11 11:23:45;;;;;;;;;;;;;;;;;;5033707;28;19924;-79
2023/05/11 11:26:10;;;;;;;;;;;;;;;;;;5033319;28;19916;-79
2023/05/11 11:28:35;;;;;;;;;;;;;;;;;;5033275;28;20281;-77
2023/05/11 11:31:01;;;;;;;;;;;;;;;;;;5031759;28;19913;-77
2023/05/11 11:33:26;;;;;;;;;;;;;;;;;;5028943;28;19913;-77
2023/05/11 11:35:52;;;;;;;;;;;;;;;;;;5013035;28;19940;-78
2023/05/11 11:38:17;;;;;;;;;;;;;;;;;;5013551;28;19914;-79
2023/05/11 11:40:43;;;;;;;;;;;;;;;;;;5013383;28;19914;-77
2023/05/11 11:43:08;;;;;;;;;;;;;;;;;;5011466;28;19913;-76
2023/05/11 11:45:34;;;;;;;;;;;;;;;;;;5011500;28;19917;-76
2023/05/11 11:47:59;;;;;;;;;;;;;;;;;;5012477;28;20051;-78
2023/05/11 11:50:24;;;;;;;;;;;;;;;;;;5012381;28;20307;-78
2023/05/11 11:52:50;;;;;;;;;;;;;;;;;;5018583;23;20396;-78
2023/05/11 11:55:15;;;;;;;;;;;;;;;;;;5052503;28;19913;-78
2023/05/11 11:57:42;;;;;;;;;;;;;;;;;;5052638;28;20325;-79
2023/05/11 12:00:10;;;;;;;;;;;;;;;;;;5052560;28;20011;-80
2023/05/11 12:02:38;;;;;;;;;;;;;;;;;;5045917;28;19917;-79
2023/05/11 12:05:04;;;;;;;;;;;;;;;;;;5032234;28;19919;-79
2023/05/11 12:07:30;;;;;;;;;;;;;;;;;;5032410;28;20368;-79
2023/05/11 12:09:55;;;;;;;;;;;;;;;;;;5031032;28;19913;-80
2023/05/11 12:12:20;;;;;;;;;;;;;;;;;;5031023;28;19917;-81
2023/05/11 12:14:47;;;;;;;;;;;;;;;;;;5032939;28;19921;-80
2023/05/11 12:17:14;;;;;;;;;;;;;;;;;;5032055;28;19913;-81
2023/05/11 12:19:40;;;;;;;;;;;;;;;;;;5032645;28;19909;-80
2023/05/11 12:22:05;;;;;;;;;;;;;;;;;;5027983;28;20396;-80
2023/05/11 12:24:31;;;;;;;;;;;;;;;;;;5031733;28;19913;-82
2023/05/11 12:26:56;;;;;;;;;;;;;;;;;;5031332;28;20453;-80
2023/05/11 12:29:22;;;;;;;;;;;;;;;;;;5031469;28;19917;-81
2023/05/11 12:31:47;;;;;;;;;;;;;;;;;;5031431;28;19966;-79
2023/05/11 12:34:12;;;;;;;;;;;;;;;;;;5032381;28;19958;-80
2023/05/11 12:36:38;;;;;;;;;;;;;;;;;;5032068;28;19913;-80
2023/05/11 12:39:03;;;;;;;;;;;;;;;;;;5029925;28;20403;-81
2023/05/11 12:41:29;;;;;;;;;;;;;;;;;;5032556;28;19913;-81
2023/05/11 12:43:55;;;;;;;;;;;;;;;;;;5032306;28;19914;-81
2023/05/11 12:46:20;;;;;;;;;;;;;;;;;;5047336;28;19986;-80
2023/05/11 12:48:45;;;;;;;;;;;;;;;;;;5029189;28;20273;-80
2023/05/11 12:51:11;;;;;;;;;;;;;;;;;;5032426;28;20553;-81
2023/05/11 12:53:36;;;;;;;;;;;;;;;;;;5032875;28;19947;-81
2023/05/11 12:56:03;;;;;;;;;;;;;;;;;;5016449;28;20427;-77
2023/05/11 12:58:28;;;;;;;;;;;;;;;;;;5014960;28;19913;-79
2023/05/11 13:00:53;;;;;;;;;;;;;;;;;;5022883;28;19963;-82
2023/05/11 13:03:19;;;;;;;;;;;;;;;;;;5021943;28;19914;-77
2023/05/11 13:05:44;;;;;;;;;;;;;;;;;;5024744;28;19925;-80
2023/05/11 13:08:13;;;;;;;;;;;;;;;;;;5025912;28;19918;-76
2023/05/11 13:10:38;;;;;;;;;;;;;;;;;;5014838;28;19978;-79
2023/05/11 13:13:04;;;;;;;;;;;;;;;;;;5016628;28;19949;-78
2023/05/11 13:15:30;;;;;;;;;;;;;;;;;;5014293;28;19913;-78
2023/05/11 13:17:55;;;;;;;;;;;;;;;;;;5030827;28;19914;-77
2023/05/11 13:20:22;;;;;;;;;;;;;;;;;;5015324;28;20092;-77
2023/05/11 13:22:47;;;;;;;;;;;;;;;;;;5015336;28;19971;-78
2023/05/11 13:25:13;;;;;;;;;;;;;;;;;;5019417;28;20011;-76
2023/05/11 13:27:38;;;;;;;;;;;;;;;;;;5033829;28;20059;-77
2023/05/11 13:30:04;;;;;;;;;;;;;;;;;;5032586;28;19913;-77
2023/05/11 13:32:29;;;;;;;;;;;;;;;;;;5032340;28;20506;-77
2023/05/11 13:34:54;;;;;;;;;;;;;;;;;;5028973;28;19913;-77
2023/05/11 13:37:20;;;;;;;;;;;;;;;;;;5034462;28;19953;-77
2023/05/11 13:39:45;;;;;;;;;;;;;;;;;;5035650;28;19913;-83
2023/05/11 13:42:11;;;;;;;;;;;;;;;;;;5035925;28;20311;-83
2023/05/11 13:44:36;;;;;;;;;;;;;;;;;;5032741;28;20245;-83
2023/05/11 13:47:01;;;;;;;;;;;;;;;;;;5053348;28;19946;-82
2023/05/11 13:49:27;;;;;;;;;;;;;;;;;;5038307;28;20011;-78
2023/05/11 13:51:54;;;;;;;;;;;;;;;;;;5037176;28;20353;-78
2023/05/11 13:54:20;;;;;;;;;;;;;;;;;;5034762;28;19924;-78
2023/05/11 13:56:45;;;;;;;;;;;;;;;;;;5033981;28;19944;-78
2023/05/11 13:59:11;;;;;;;;;;;;;;;;;;5036122;28;19925;-78
2023/05/11 14:01:37;;;;;;;;;;;;;;;;;;5017266;28;19913;-77
2023/05/11 14:04:03;;;;;;;;;;;;;;;;;;5035657;28;19917;-79
2023/05/11 14:06:28;;;;;;;;;;;;;;;;;;5032718;28;20034;-78
2023/05/11 14:08:54;;;;;;;;;;;;;;;;;;5016668;28;19920;-79
2023/05/11 14:11:20;;;;;;;;;;;;;;;;;;5037034;28;20010;-78
2023/05/11 14:13:45;;;;;;;;;;;;;;;;;;5026163;28;19915;-80
2023/05/11 14:16:11;;;;;;;;;;;;;;;;;;5037089;28;19913;-80
2023/05/11 14:18:36;;;;;;;;;;;;;;;;;;5035640;28;19917;-79
2023/05/11 14:21:02;;;;;;;;;;;;;;;;;;5037090;28;20011;-79
2023/05/11 14:23:27;;;;;;;;;;;;;;;;;;5026313;28;20325;-79
2023/05/11 14:25:52;;;;;;;;;;;;;;;;;;5033674;28;20021;-79
2023/05/11 14:28:18;;;;;;;;;;;;;;;;;;5031746;28;19944;-82
2023/05/11 14:30:43;;;;;;;;;;;;;;;;;;5041557;28;19956;-83
2023/05/11 14:33:09;;;;;;;;;;;;;;;;;;5040055;28;19920;-83
2023/05/11 14:35:34;;;;;;;;;;;;;;;;;;5035082;28;19919;-83
2023/05/11 14:38:00;;;;;;;;;;;;;;;;;;5034947;28;19913;-83
2023/05/11 14:40:26;;;;;;;;;;;;;;;;;;5017402;28;19913;-84
2023/05/11 14:42:53;;;;;;;;;;;;;;;;;;5032049;28;20351;-83
2023/05/11 14:45:18;;;;;;;;;;;;;;;;;;5031059;28;19920;-84
2023/05/11 14:47:43;;;;;;;;;;;;;;;;;;5031903;28;19996;-84
2023/05/11 14:50:09;;;;;;;;;;;;;;;;;;5046452;28;19943;-84
2023/05/11 14:52:34;;;;;;;;;;;;;;;;;;5013905;28;19968;-84
2023/05/11 14:55:00;;;;;;;;;;;;;;;;;;5025125;28;19914;-84
2023/05/11 14:57:25;;;;;;;;;;;;;;;;;;5021407;28;20368;-84
2023/05/11 14:59:51;;;;;;;;;;;;;;;;;;5038964;28;19963;-84
2023/05/11 15:02:16;;;;;;;;;;;;;;;;;;5011349;28;19920;-84
2023/05/11 15:04:42;;;;;;;;;;;;;;;;;;5035324;28;19948;-84
2023/05/11 15:07:07;;;;;;;;;;;;;;;;;;5053693;28;19948;-84
2023/05/11 15:09:33;;;;;;;;;;;;;;;;;;5037238;28;19920;-84
2023/05/11 15:12:00;;;;;;;;;;;;;;;;;;5003945;28;19944;-85
2023/05/11 15:14:25;;;;;;;;;;;;;;;;;;5035844;28;19920;-85
2023/05/11 15:16:53;;;;;;;;;;;;;;;;;;5033843;28;20368;-84
2023/05/11 15:19:19;;;;;;;;;;;;;;;;;;5020058;28;19932;-84
2023/05/11 15:21:44;;;;;;;;;;;;;;;;;;5001372;28;19935;-84
2023/05/11 15:24:09;;;;;;;;;;;;;;;;;;5032365;28;19914;-85
2023/05/11 15:26:35;;;;;;;;;;;;;;;;;;5013564;28;19944;-84
2023/05/11 15:29:00;;;;;;;;;;;;;;;;;;5014246;28;20242;-85
2023/05/11 15:31:26;;;;;;;;;;;;;;;;;;5014404;28;20361;-85
2023/05/11 15:33:51;;;;;;;;;;;;;;;;;;5013414;28;19917;-84
2023/05/11 15:36:17;;;;;;;;;;;;;;;;;;5013639;28;19914;-86
2023/05/11 15:38:42;;;;;;;;;;;;;;;;;;5013712;28;19923;-84
2023/05/11 15:41:07;;;;;;;;;;;;;;;;;;5014747;28;19914;-83
2023/05/11 15:43:33;;;;;;;;;;;;;;;;;;5018785;28;19914;-84
2023/05/11 15:45:58;;;;;;;;;;;;;;;;;;5040123;28;19917;-84
2023/05/11 15:48:24;;;;;;;;;;;;;;;;;;5025833;28;19914;-85
2023/05/11 15:50:50;;;;;;;;;;;;;;;;;;5037871;28;19913;-83
2023/05/11 15:53:15;;;;;;;;;;;;;;;;;;5040604;28;20349;-83
2023/05/11 15:55:44;;;;;;;;;;;;;;;;;;5039558;28;20327;-84
2023/05/11 15:58:10;;;;;;;;;;;;;;;;;;5044055;28;19920;-84
2023/05/11 16:00:36;;;;;;;;;;;;;;;;;;5046308;28;19914;-84
2023/05/11 16:03:01;;;;;;;;;;;;;;;;;;5033675;28;19936;-84
2023/05/11 16:05:27;;;;;;;;;;;;;;;;;;5047859;28;19972;-82
2023/05/11 16:07:52;;;;;;;;;;;;;;;;;;5052211;28;19920;-84
2023/05/11 16:10:17;;;;;;;;;;;;;;;;;;5051085;28;19936;-84
2023/05/11 16:12:43;;;;;;;;;;;;;;;;;;5042595;28;20427;-84
2023/05/11 16:15:09;;;;;;;;;;;;;;;;;;5043425;28;20022;-84
2023/05/11 16:17:34;;;;;;;;;;;;;;;;;;5036970;28;19917;-84
2023/05/11 16:20:02;;;;;;;;;;;;;;;;;;5033022;28;20376;-84
2023/05/11 16:22:27;;;;;;;;;;;;;;;;;;5024662;28;19913;-82
2023/05/11 16:24:53;;;;;;;;;;;;;;;;;;5020474;28;20459;-81
2023/05/11 16:27:18;;;;;;;;;;;;;;;;;;5026025;28;19921;-82
2023/05/11 16:29:43;;;;;;;;;;;;;;;;;;5033319;28;19975;-84
2023/05/11 16:32:09;;;;;;;;;;;;;;;;;;5026751;28;19920;-82
2023/05/11 16:34:34;;;;;;;;;;;;;;;;;;5033746;28;19920;-80